Wadestown, West Virginia
Current Conditions -  °F | °C
As of 4:53 PM on Sunday 23 Nov 2014 (Local Time) from KMGW Reporting Station
Clear Clear  
Wind Chill: 62°   Ceiling: Unl
Heat Index: 62°   Visibility: 10mi
Dew Point: 36°   Wind: 12mph
Humidity: 38%   Direction: 140°SE
Pressure: 29.84"   Gusts: NA
Location:  39.68°N, 80.34°W
Report Text: KMGW 232153Z 14010KT 10SM CLR 17/02 A2984 RMK AO2 SLP102 T01670022
Loading
Personal Weather Stations






























Interactive Weather Map New forecast layout! Learn more

10-Day Weather Forecast

Advertisements
Track Severe Weather on mobile